sensor_id;sensor_type;location;lat;lon;timestamp;temperature;humidity
13835;DHT22;6988;52.614;13.500;2023-04-24T00:01:50;9.70;99.90
13835;DHT22;6988;52.614;13.500;2023-04-24T00:06:42;9.70;99.90
13835;DHT22;6988;52.614;13.500;2023-04-24T00:11:34;9.60;99.90
13835;DHT22;6988;52.614;13.500;2023-04-24T00:16:26;9.50;99.90
13835;DHT22;6988;52.614;13.500;2023-04-24T00:21:19;9.40;99.90
13835;DHT22;6988;52.614;13.500;2023-04-24T00:26:11;9.40;99.90
13835;DHT22;6988;52.614;13.500;2023-04-24T00:31:03;9.50;99.90
13835;DHT22;6988;52.614;13.500;2023-04-24T00:35:55;9.50;99.90
13835;DHT22;6988;52.614;13.500;2023-04-24T00:40:48;9.60;99.90
13835;DHT22;6988;52.614;13.500;2023-04-24T00:45:40;9.60;99.90
13835;DHT22;6988;52.614;13.500;2023-04-24T00:50:32;9.60;99.90
13835;DHT22;6988;52.614;13.500;2023-04-24T00:55:24;9.70;99.90
13835;DHT22;6988;52.614;13.500;2023-04-24T01:00:19;9.60;99.90
13835;DHT22;6988;52.614;13.500;2023-04-24T01:05:12;9.60;99.90
13835;DHT22;6988;52.614;13.500;2023-04-24T01:10:07;9.50;99.90
13835;DHT22;6988;52.614;13.500;2023-04-24T01:15:00;9.40;99.90
13835;DHT22;6988;52.614;13.500;2023-04-24T01:19:53;9.40;99.90
13835;DHT22;6988;52.614;13.500;2023-04-24T01:24:49;9.40;99.90
13835;DHT22;6988;52.614;13.500;2023-04-24T01:29:41;9.50;99.90
13835;DHT22;6988;52.614;13.500;2023-04-24T01:34:34;9.40;99.90
13835;DHT22;6988;52.614;13.500;2023-04-24T01:39:26;9.30;99.90
13835;DHT22;6988;52.614;13.500;2023-04-24T01:44:20;9.50;99.90
13835;DHT22;6988;52.614;13.500;2023-04-24T01:49:12;9.50;99.90
13835;DHT22;6988;52.614;13.500;2023-04-24T01:54:04;9.30;99.90
13835;DHT22;6988;52.614;13.500;2023-04-24T01:58:57;9.40;99.90
13835;DHT22;6988;52.614;13.500;2023-04-24T02:03:51;9.50;99.90
13835;DHT22;6988;52.614;13.500;2023-04-24T02:08:43;9.50;99.90
13835;DHT22;6988;52.614;13.500;2023-04-24T02:13:35;9.50;99.90
13835;DHT22;6988;52.614;13.500;2023-04-24T02:18:27;9.50;99.90
13835;DHT22;6988;52.614;13.500;2023-04-24T02:23:20;9.40;99.90
13835;DHT22;6988;52.614;13.500;2023-04-24T02:28:12;9.50;99.90
13835;DHT22;6988;52.614;13.500;2023-04-24T02:33:03;9.40;99.90
13835;DHT22;6988;52.614;13.500;2023-04-24T02:37:55;9.40;99.90
13835;DHT22;6988;52.614;13.500;2023-04-24T02:42:48;9.60;99.90
13835;DHT22;6988;52.614;13.500;2023-04-24T02:47:41;9.50;99.90
13835;DHT22;6988;52.614;13.500;2023-04-24T02:52:33;9.40;99.90
13835;DHT22;6988;52.614;13.500;2023-04-24T02:57:25;9.50;99.90
13835;DHT22;6988;52.614;13.500;2023-04-24T03:02:18;9.50;99.90
13835;DHT22;6988;52.614;13.500;2023-04-24T03:07:11;9.50;99.90
13835;DHT22;6988;52.614;13.500;2023-04-24T03:12:02;9.60;99.90
13835;DHT22;6988;52.614;13.500;2023-04-24T03:16:55;9.50;99.90
13835;DHT22;6988;52.614;13.500;2023-04-24T03:21:48;9.60;99.90
13835;DHT22;6988;52.614;13.500;2023-04-24T03:26:41;9.70;99.90
13835;DHT22;6988;52.614;13.500;2023-04-24T03:31:52;9.60;99.90
13835;DHT22;6988;52.614;13.500;2023-04-24T03:36:44;9.60;99.90
13835;DHT22;6988;52.614;13.500;2023-04-24T03:41:40;9.70;99.90
13835;DHT22;6988;52.614;13.500;2023-04-24T03:46:35;9.70;99.90
13835;DHT22;6988;52.614;13.500;2023-04-24T03:51:27;9.80;99.90
13835;DHT22;6988;52.614;13.500;2023-04-24T03:56:26;9.80;99.90
13835;DHT22;6988;52.614;13.500;2023-04-24T04:01:19;9.80;99.90
13835;DHT22;6988;52.614;13.500;2023-04-24T04:06:18;9.90;99.90
13835;DHT22;6988;52.614;13.500;2023-04-24T04:11:12;10.00;99.90
13835;DHT22;6988;52.614;13.500;2023-04-24T04:16:04;10.10;99.90
13835;DHT22;6988;52.614;13.500;2023-04-24T04:20:58;10.10;99.90
13835;DHT22;6988;52.614;13.500;2023-04-24T04:25:51;10.00;99.90
13835;DHT22;6988;52.614;13.500;2023-04-24T04:30:47;10.00;99.90
13835;DHT22;6988;52.614;13.500;2023-04-24T04:35:40;10.10;99.90
13835;DHT22;6988;52.614;13.500;2023-04-24T04:40:34;10.00;99.90
13835;DHT22;6988;52.614;13.500;2023-04-24T04:45:29;10.10;99.90
13835;DHT22;6988;52.614;13.500;2023-04-24T04:50:46;10.20;99.90
13835;DHT22;6988;52.614;13.500;2023-04-24T04:55:40;10.20;99.90
13835;DHT22;6988;52.614;13.500;2023-04-24T05:00:39;10.20;99.90
13835;DHT22;6988;52.614;13.500;2023-04-24T05:05:41;10.30;99.90
13835;DHT22;6988;52.614;13.500;2023-04-24T05:10:37;10.40;99.90
13835;DHT22;6988;52.614;13.500;2023-04-24T05:15:31;10.50;99.90
13835;DHT22;6988;52.614;13.500;2023-04-24T05:20:24;10.60;99.90
13835;DHT22;6988;52.614;13.500;2023-04-24T05:25:17;10.80;99.90
13835;DHT22;6988;52.614;13.500;2023-04-24T05:30:18;11.00;99.90
13835;DHT22;6988;52.614;13.500;2023-04-24T05:35:11;11.20;99.90
13835;DHT22;6988;52.614;13.500;2023-04-24T05:40:06;11.40;99.90
13835;DHT22;6988;52.614;13.500;2023-04-24T05:44:59;11.60;99.90
13835;DHT22;6988;52.614;13.500;2023-04-24T05:49:51;11.80;99.90
13835;DHT22;6988;52.614;13.500;2023-04-24T05:54:44;12.00;99.90
13835;DHT22;6988;52.614;13.500;2023-04-24T05:59:40;12.20;99.90
13835;DHT22;6988;52.614;13.500;2023-04-24T06:04:33;12.40;99.90
13835;DHT22;6988;52.614;13.500;2023-04-24T06:09:25;12.70;99.90
13835;DHT22;6988;52.614;13.500;2023-04-24T06:14:18;12.70;99.90
13835;DHT22;6988;52.614;13.500;2023-04-24T06:19:34;12.80;99.90
13835;DHT22;6988;52.614;13.500;2023-04-24T06:24:27;13.10;99.90
13835;DHT22;6988;52.614;13.500;2023-04-24T06:29:21;13.40;99.90
13835;DHT22;6988;52.614;13.500;2023-04-24T06:34:12;13.70;99.90
13835;DHT22;6988;52.614;13.500;2023-04-24T06:39:04;13.80;99.90
13835;DHT22;6988;52.614;13.500;2023-04-24T06:43:57;13.80;99.90
13835;DHT22;6988;52.614;13.500;2023-04-24T06:48:50;13.80;99.90
13835;DHT22;6988;52.614;13.500;2023-04-24T06:53:42;14.20;99.90
13835;DHT22;6988;52.614;13.500;2023-04-24T06:58:33;14.60;99.90
13835;DHT22;6988;52.614;13.500;2023-04-24T07:03:25;14.80;99.90
13835;DHT22;6988;52.614;13.500;2023-04-24T07:08:18;15.10;99.90
13835;DHT22;6988;52.614;13.500;2023-04-24T07:13:11;15.60;99.90
13835;DHT22;6988;52.614;13.500;2023-04-24T07:18:03;16.00;99.90
13835;DHT22;6988;52.614;13.500;2023-04-24T07:22:55;16.30;99.90
13835;DHT22;6988;52.614;13.500;2023-04-24T07:27:48;16.00;99.90
13835;DHT22;6988;52.614;13.500;2023-04-24T07:32:40;16.10;99.90
13835;DHT22;6988;52.614;13.500;2023-04-24T07:37:32;16.20;99.90
13835;DHT22;6988;52.614;13.500;2023-04-24T07:42:24;16.40;99.90
13835;DHT22;6988;52.614;13.500;2023-04-24T07:47:17;16.50;99.90
13835;DHT22;6988;52.614;13.500;2023-04-24T07:52:09;16.60;99.90
13835;DHT22;6988;52.614;13.500;2023-04-24T07:57:01;16.50;99.90
13835;DHT22;6988;52.614;13.500;2023-04-24T08:01:53;16.70;99.90
13835;DHT22;6988;52.614;13.500;2023-04-24T08:06:47;17.10;99.90
13835;DHT22;6988;52.614;13.500;2023-04-24T08:11:39;17.30;99.90
13835;DHT22;6988;52.614;13.500;2023-04-24T08:16:32;17.50;99.90
13835;DHT22;6988;52.614;13.500;2023-04-24T08:21:24;17.90;99.90
13835;DHT22;6988;52.614;13.500;2023-04-24T08:26:18;18.20;99.90
13835;DHT22;6988;52.614;13.500;2023-04-24T08:31:10;18.10;99.90
13835;DHT22;6988;52.614;13.500;2023-04-24T08:36:02;17.70;99.90
13835;DHT22;6988;52.614;13.500;2023-04-24T08:40:58;17.40;99.90
13835;DHT22;6988;52.614;13.500;2023-04-24T08:45:54;17.60;99.90
13835;DHT22;6988;52.614;13.500;2023-04-24T08:50:48;18.10;99.90
13835;DHT22;6988;52.614;13.500;2023-04-24T08:55:43;18.10;99.90
13835;DHT22;6988;52.614;13.500;2023-04-24T09:00:39;18.10;99.90
13835;DHT22;6988;52.614;13.500;2023-04-24T09:05:38;18.40;99.90
13835;DHT22;6988;52.614;13.500;2023-04-24T09:10:31;18.80;99.90
13835;DHT22;6988;52.614;13.500;2023-04-24T09:15:23;19.00;99.90
13835;DHT22;6988;52.614;13.500;2023-04-24T09:20:16;19.00;99.90
13835;DHT22;6988;52.614;13.500;2023-04-24T09:25:10;18.90;99.90
13835;DHT22;6988;52.614;13.500;2023-04-24T09:30:03;18.90;99.90
13835;DHT22;6988;52.614;13.500;2023-04-24T09:35:14;18.60;99.90
13835;DHT22;6988;52.614;13.500;2023-04-24T09:40:13;18.40;99.90
13835;DHT22;6988;52.614;13.500;2023-04-24T09:45:09;18.10;99.90
13835;DHT22;6988;52.614;13.500;2023-04-24T09:50:09;17.90;99.90
13835;DHT22;6988;52.614;13.500;2023-04-24T09:55:03;17.40;99.90
13835;DHT22;6988;52.614;13.500;2023-04-24T10:00:08;17.20;99.90
13835;DHT22;6988;52.614;13.500;2023-04-24T10:05:02;17.10;99.90
13835;DHT22;6988;52.614;13.500;2023-04-24T10:09:54;17.00;99.90
13835;DHT22;6988;52.614;13.500;2023-04-24T10:14:48;17.00;99.90
13835;DHT22;6988;52.614;13.500;2023-04-24T10:19:43;17.20;99.90
13835;DHT22;6988;52.614;13.500;2023-04-24T10:24:35;17.90;99.90
13835;DHT22;6988;52.614;13.500;2023-04-24T10:29:31;18.50;99.90
13835;DHT22;6988;52.614;13.500;2023-04-24T10:34:26;18.70;99.90
13835;DHT22;6988;52.614;13.500;2023-04-24T10:39:20;18.80;99.90
13835;DHT22;6988;52.614;13.500;2023-04-24T10:44:15;18.50;99.90
13835;DHT22;6988;52.614;13.500;2023-04-24T10:49:08;18.50;99.90
13835;DHT22;6988;52.614;13.500;2023-04-24T10:54:23;18.70;99.90
13835;DHT22;6988;52.614;13.500;2023-04-24T10:59:24;18.80;99.90
13835;DHT22;6988;52.614;13.500;2023-04-24T11:04:29;18.40;99.90
13835;DHT22;6988;52.614;13.500;2023-04-24T11:09:26;17.90;99.90
13835;DHT22;6988;52.614;13.500;2023-04-24T11:14:19;17.70;99.90
13835;DHT22;6988;52.614;13.500;2023-04-24T11:19:21;17.90;99.90
13835;DHT22;6988;52.614;13.500;2023-04-24T11:24:30;18.20;99.90
13835;DHT22;6988;52.614;13.500;2023-04-24T11:29:43;18.40;99.90
13835;DHT22;6988;52.614;13.500;2023-04-24T11:34:38;18.70;99.90
13835;DHT22;6988;52.614;13.500;2023-04-24T11:39:37;19.30;99.90
13835;DHT22;6988;52.614;13.500;2023-04-24T11:44:29;19.70;99.90
13835;DHT22;6988;52.614;13.500;2023-04-24T11:49:23;19.40;99.90
13835;DHT22;6988;52.614;13.500;2023-04-24T11:54:15;19.00;99.90
13835;DHT22;6988;52.614;13.500;2023-04-24T11:59:09;18.50;99.90
13835;DHT22;6988;52.614;13.500;2023-04-24T12:04:00;18.00;99.90
13835;DHT22;6988;52.614;13.500;2023-04-24T12:08:52;17.60;99.90
13835;DHT22;6988;52.614;13.500;2023-04-24T12:13:45;17.60;99.90
13835;DHT22;6988;52.614;13.500;2023-04-24T12:18:43;17.60;99.90
13835;DHT22;6988;52.614;13.500;2023-04-24T12:23:36;17.80;99.90
13835;DHT22;6988;52.614;13.500;2023-04-24T12:28:35;18.90;99.90
13835;DHT22;6988;52.614;13.500;2023-04-24T12:33:28;19.90;99.90
13835;DHT22;6988;52.614;13.500;2023-04-24T12:38:26;20.20;99.90
13835;DHT22;6988;52.614;13.500;2023-04-24T12:43:20;20.50;99.90
13835;DHT22;6988;52.614;13.500;2023-04-24T12:48:12;20.00;99.90
13835;DHT22;6988;52.614;13.500;2023-04-24T12:53:05;19.70;99.90
13835;DHT22;6988;52.614;13.500;2023-04-24T12:57:59;19.60;99.90
13835;DHT22;6988;52.614;13.500;2023-04-24T13:02:52;19.60;99.90
13835;DHT22;6988;52.614;13.500;2023-04-24T13:07:44;19.80;99.90
13835;DHT22;6988;52.614;13.500;2023-04-24T13:12:40;20.20;99.90
13835;DHT22;6988;52.614;13.500;2023-04-24T13:17:36;19.60;99.90
13835;DHT22;6988;52.614;13.500;2023-04-24T13:22:28;19.00;99.90
13835;DHT22;6988;52.614;13.500;2023-04-24T13:27:20;19.10;99.90
13835;DHT22;6988;52.614;13.500;2023-04-24T13:32:12;19.40;99.90
13835;DHT22;6988;52.614;13.500;2023-04-24T13:37:06;19.70;99.90
13835;DHT22;6988;52.614;13.500;2023-04-24T13:41:58;19.30;99.90
13835;DHT22;6988;52.614;13.500;2023-04-24T13:46:52;19.20;99.90
13835;DHT22;6988;52.614;13.500;2023-04-24T13:51:47;18.80;99.90
13835;DHT22;6988;52.614;13.500;2023-04-24T13:56:40;18.70;99.90
13835;DHT22;6988;52.614;13.500;2023-04-24T14:01:32;18.60;99.90
13835;DHT22;6988;52.614;13.500;2023-04-24T14:06:24;18.50;99.90
13835;DHT22;6988;52.614;13.500;2023-04-24T14:11:17;18.50;99.90
13835;DHT22;6988;52.614;13.500;2023-04-24T14:16:11;18.40;99.90
13835;DHT22;6988;52.614;13.500;2023-04-24T14:21:03;18.40;99.90
13835;DHT22;6988;52.614;13.500;2023-04-24T14:25:56;18.60;99.90
13835;DHT22;6988;52.614;13.500;2023-04-24T14:30:49;18.20;99.90
13835;DHT22;6988;52.614;13.500;2023-04-24T14:35:42;18.10;99.90
13835;DHT22;6988;52.614;13.500;2023-04-24T14:40:35;18.20;99.90
13835;DHT22;6988;52.614;13.500;2023-04-24T14:45:27;18.30;99.90
13835;DHT22;6988;52.614;13.500;2023-04-24T14:50:19;18.30;99.90
13835;DHT22;6988;52.614;13.500;2023-04-24T14:55:13;18.70;99.90
13835;DHT22;6988;52.614;13.500;2023-04-24T15:00:08;18.90;99.90
13835;DHT22;6988;52.614;13.500;2023-04-24T15:05:01;18.60;99.90
13835;DHT22;6988;52.614;13.500;2023-04-24T15:09:54;18.40;99.90
13835;DHT22;6988;52.614;13.500;2023-04-24T15:14:47;18.20;99.90
13835;DHT22;6988;52.614;13.500;2023-04-24T15:19:40;17.90;99.90
13835;DHT22;6988;52.614;13.500;2023-04-24T15:24:32;17.70;99.90
13835;DHT22;6988;52.614;13.500;2023-04-24T15:29:24;17.50;99.90
13835;DHT22;6988;52.614;13.500;2023-04-24T15:34:18;17.30;99.90
13835;DHT22;6988;52.614;13.500;2023-04-24T15:39:11;16.90;99.90
13835;DHT22;6988;52.614;13.500;2023-04-24T15:44:05;17.10;99.90
13835;DHT22;6988;52.614;13.500;2023-04-24T15:48:57;17.00;99.90
13835;DHT22;6988;52.614;13.500;2023-04-24T15:53:51;17.10;99.90
13835;DHT22;6988;52.614;13.500;2023-04-24T15:58:43;16.80;99.90
13835;DHT22;6988;52.614;13.500;2023-04-24T16:03:36;16.50;99.90
13835;DHT22;6988;52.614;13.500;2023-04-24T16:08:30;16.30;99.90
13835;DHT22;6988;52.614;13.500;2023-04-24T16:13:24;16.20;99.90
13835;DHT22;6988;52.614;13.500;2023-04-24T16:18:16;16.10;99.90
13835;DHT22;6988;52.614;13.500;2023-04-24T16:23:08;16.10;99.90
13835;DHT22;6988;52.614;13.500;2023-04-24T16:28:00;15.90;99.90
13835;DHT22;6988;52.614;13.500;2023-04-24T16:32:53;15.80;99.90
13835;DHT22;6988;52.614;13.500;2023-04-24T16:37:45;15.80;99.90
13835;DHT22;6988;52.614;13.500;2023-04-24T16:42:38;15.80;99.90
13835;DHT22;6988;52.614;13.500;2023-04-24T16:47:30;15.70;99.90
13835;DHT22;6988;52.614;13.500;2023-04-24T16:52:24;15.60;99.90
13835;DHT22;6988;52.614;13.500;2023-04-24T16:57:16;15.60;99.90
13835;DHT22;6988;52.614;13.500;2023-04-24T17:02:14;15.40;99.90
13835;DHT22;6988;52.614;13.500;2023-04-24T17:07:06;15.10;99.90
13835;DHT22;6988;52.614;13.500;2023-04-24T17:12:03;14.90;99.90
13835;DHT22;6988;52.614;13.500;2023-04-24T17:16:57;14.60;99.90
13835;DHT22;6988;52.614;13.500;2023-04-24T17:21:53;14.40;99.90
13835;DHT22;6988;52.614;13.500;2023-04-24T17:26:47;14.30;99.90
13835;DHT22;6988;52.614;13.500;2023-04-24T17:31:40;14.00;99.90
13835;DHT22;6988;52.614;13.500;2023-04-24T17:36:33;13.90;99.90
13835;DHT22;6988;52.614;13.500;2023-04-24T17:41:25;13.80;99.90
13835;DHT22;6988;52.614;13.500;2023-04-24T17:46:23;13.50;99.90
13835;DHT22;6988;52.614;13.500;2023-04-24T17:51:16;13.30;99.90
13835;DHT22;6988;52.614;13.500;2023-04-24T17:56:08;13.10;99.90
13835;DHT22;6988;52.614;13.500;2023-04-24T18:01:00;13.10;99.90
13835;DHT22;6988;52.614;13.500;2023-04-24T18:05:53;13.00;99.90
13835;DHT22;6988;52.614;13.500;2023-04-24T18:10:46;12.80;99.90
13835;DHT22;6988;52.614;13.500;2023-04-24T18:15:38;12.60;99.90
13835;DHT22;6988;52.614;13.500;2023-04-24T18:20:32;12.70;99.90
13835;DHT22;6988;52.614;13.500;2023-04-24T18:25:25;12.60;99.90
13835;DHT22;6988;52.614;13.500;2023-04-24T18:30:18;12.50;99.90
13835;DHT22;6988;52.614;13.500;2023-04-24T18:35:11;12.50;99.90
13835;DHT22;6988;52.614;13.500;2023-04-24T18:40:03;12.30;99.90
13835;DHT22;6988;52.614;13.500;2023-04-24T18:44:55;12.20;99.90
13835;DHT22;6988;52.614;13.500;2023-04-24T18:49:52;12.00;99.90
13835;DHT22;6988;52.614;13.500;2023-04-24T18:54:43;11.80;99.90
13835;DHT22;6988;52.614;13.500;2023-04-24T18:59:37;11.60;99.90
13835;DHT22;6988;52.614;13.500;2023-04-24T19:04:28;11.50;99.90
13835;DHT22;6988;52.614;13.500;2023-04-24T19:09:22;11.30;99.90
13835;DHT22;6988;52.614;13.500;2023-04-24T19:14:13;11.10;99.90
13835;DHT22;6988;52.614;13.500;2023-04-24T19:19:05;11.20;99.90
13835;DHT22;6988;52.614;13.500;2023-04-24T19:23:57;10.90;99.90
13835;DHT22;6988;52.614;13.500;2023-04-24T19:28:51;10.80;99.90
13835;DHT22;6988;52.614;13.500;2023-04-24T19:33:46;10.70;99.90
13835;DHT22;6988;52.614;13.500;2023-04-24T19:38:38;10.60;99.90
13835;DHT22;6988;52.614;13.500;2023-04-24T19:43:30;10.60;99.90
13835;DHT22;6988;52.614;13.500;2023-04-24T19:48:23;10.50;99.90
13835;DHT22;6988;52.614;13.500;2023-04-24T19:53:16;10.40;99.90
13835;DHT22;6988;52.614;13.500;2023-04-24T19:58:08;10.40;99.90
13835;DHT22;6988;52.614;13.500;2023-04-24T20:02:59;10.30;99.90
13835;DHT22;6988;52.614;13.500;2023-04-24T20:07:53;10.30;99.90
13835;DHT22;6988;52.614;13.500;2023-04-24T20:12:45;10.20;99.90
13835;DHT22;6988;52.614;13.500;2023-04-24T20:17:37;10.30;99.90
13835;DHT22;6988;52.614;13.500;2023-04-24T20:22:28;10.20;99.90
13835;DHT22;6988;52.614;13.500;2023-04-24T20:27:23;10.00;99.90
13835;DHT22;6988;52.614;13.500;2023-04-24T20:32:15;10.10;99.90
13835;DHT22;6988;52.614;13.500;2023-04-24T20:37:06;10.00;99.90
13835;DHT22;6988;52.614;13.500;2023-04-24T20:41:58;9.90;99.90
13835;DHT22;6988;52.614;13.500;2023-04-24T20:46:52;9.80;99.90
13835;DHT22;6988;52.614;13.500;2023-04-24T20:51:43;9.60;99.90
13835;DHT22;6988;52.614;13.500;2023-04-24T20:56:35;9.70;99.90
13835;DHT22;6988;52.614;13.500;2023-04-24T21:01:27;9.80;99.90
13835;DHT22;6988;52.614;13.500;2023-04-24T21:06:21;9.80;99.90
13835;DHT22;6988;52.614;13.500;2023-04-24T21:11:12;9.80;99.90
13835;DHT22;6988;52.614;13.500;2023-04-24T21:16:04;9.70;99.90
13835;DHT22;6988;52.614;13.500;2023-04-24T21:20:56;9.70;99.90
13835;DHT22;6988;52.614;13.500;2023-04-24T21:25:52;9.50;99.90
13835;DHT22;6988;52.614;13.500;2023-04-24T21:30:44;9.60;99.90
13835;DHT22;6988;52.614;13.500;2023-04-24T21:35:36;9.50;99.90
13835;DHT22;6988;52.614;13.500;2023-04-24T21:40:28;9.40;99.90
13835;DHT22;6988;52.614;13.500;2023-04-24T21:45:21;9.40;99.90
13835;DHT22;6988;52.614;13.500;2023-04-24T22:04:53;8.90;99.90
13835;DHT22;6988;52.614;13.500;2023-04-24T22:09:45;8.90;99.90
13835;DHT22;6988;52.614;13.500;2023-04-24T22:14:37;9.00;99.90
13835;DHT22;6988;52.614;13.500;2023-04-24T22:19:29;9.00;99.90
13835;DHT22;6988;52.614;13.500;2023-04-24T22:24:22;9.10;99.90
13835;DHT22;6988;52.614;13.500;2023-04-24T22:29:14;9.10;99.90
13835;DHT22;6988;52.614;13.500;2023-04-24T22:34:06;9.10;99.90
13835;DHT22;6988;52.614;13.500;2023-04-24T22:38:58;9.10;99.90
13835;DHT22;6988;52.614;13.500;2023-04-24T22:43:52;9.20;99.90
13835;DHT22;6988;52.614;13.500;2023-04-24T22:48:44;9.30;99.90
13835;DHT22;6988;52.614;13.500;2023-04-24T22:53:37;9.30;99.90
13835;DHT22;6988;52.614;13.500;2023-04-24T22:58:29;9.30;99.90
13835;DHT22;6988;52.614;13.500;2023-04-24T23:03:23;9.30;99.90
13835;DHT22;6988;52.614;13.500;2023-04-24T23:08:15;9.20;99.90
13835;DHT22;6988;52.614;13.500;2023-04-24T23:13:07;9.10;99.90
13835;DHT22;6988;52.614;13.500;2023-04-24T23:17:59;9.10;99.90
13835;DHT22;6988;52.614;13.500;2023-04-24T23:22:52;9.00;99.90
13835;DHT22;6988;52.614;13.500;2023-04-24T23:27:44;8.90;99.90
13835;DHT22;6988;52.614;13.500;2023-04-24T23:32:36;8.90;99.90
13835;DHT22;6988;52.614;13.500;2023-04-24T23:37:27;8.90;99.90
13835;DHT22;6988;52.614;13.500;2023-04-24T23:42:21;9.00;99.90
13835;DHT22;6988;52.614;13.500;2023-04-24T23:47:13;9.10;99.90
13835;DHT22;6988;52.614;13.500;2023-04-24T23:52:04;9.10;99.90
13835;DHT22;6988;52.614;13.500;2023-04-24T23:56:56;9.10;99.90
